Villa Krause, Argentina
Current Conditions -  °F | °C
As of 10:00 PM on Monday 26 Jan 2015 (Local Time) from SAME Reporting Station
Clear Clear  
Wind Chill: 28°   Ceiling: Unl
Heat Index: 29°   Visibility: 6mi
Dew Point: 17°   Wind: 10mph
Humidity: 51%   Direction: 360°N
Pressure: 29.8"   Gusts: NA
Location:  31.57°S, 68.53°W
Report Text: SAME 270100Z 36009KT CAVOK 28/17 Q1009
Loading
Personal Weather Stations






























Interactive Weather Map New forecast layout! Learn more

10-Day Weather Forecast

Advertisements
Track Severe Weather on mobile